sensor_id;sensor_type;location;lat;lon;timestamp;pressure;altitude;pressure_sealevel;temperature;humidity
74881;BME280;63427;49.654;6.596;2023-06-22T00:02:07;99859.89;;;24.58;41.93
74881;BME280;63427;49.654;6.596;2023-06-22T00:04:32;99861.18;;;24.17;42.67
74881;BME280;63427;49.654;6.596;2023-06-22T00:06:57;99860.93;;;24.35;43.90
74881;BME280;63427;49.654;6.596;2023-06-22T00:09:22;99853.34;;;24.53;41.74
74881;BME280;63427;49.654;6.596;2023-06-22T00:11:47;99848.00;;;24.46;41.92
74881;BME280;63427;49.654;6.596;2023-06-22T00:14:12;99846.90;;;24.40;44.17
74881;BME280;63427;49.654;6.596;2023-06-22T00:16:38;99845.74;;;24.46;43.10
74881;BME280;63427;49.654;6.596;2023-06-22T00:19:03;99830.75;;;24.16;43.68
74881;BME280;63427;49.654;6.596;2023-06-22T00:21:29;99803.79;;;24.42;44.15
74881;BME280;63427;49.654;6.596;2023-06-22T00:23:54;99789.33;;;24.42;43.96
74881;BME280;63427;49.654;6.596;2023-06-22T00:26:20;99781.70;;;24.39;44.22
74881;BME280;63427;49.654;6.596;2023-06-22T00:28:45;99780.93;;;24.28;44.46
74881;BME280;63427;49.654;6.596;2023-06-22T00:31:10;99767.53;;;24.24;44.85
74881;BME280;63427;49.654;6.596;2023-06-22T00:33:35;99747.89;;;24.34;44.02
74881;BME280;63427;49.654;6.596;2023-06-22T00:36:00;99742.32;;;24.29;44.35
74881;BME280;63427;49.654;6.596;2023-06-22T00:38:25;99746.21;;;24.01;43.25
74881;BME280;63427;49.654;6.596;2023-06-22T00:40:50;99761.67;;;24.14;44.40
74881;BME280;63427;49.654;6.596;2023-06-22T00:43:15;99775.23;;;24.18;42.86
74881;BME280;63427;49.654;6.596;2023-06-22T00:45:41;99793.94;;;24.28;42.45
74881;BME280;63427;49.654;6.596;2023-06-22T00:48:08;99810.74;;;24.48;42.41
74881;BME280;63427;49.654;6.596;2023-06-22T00:50:33;99825.35;;;24.08;44.66
74881;BME280;63427;49.654;6.596;2023-06-22T00:52:59;99835.28;;;24.06;43.22
74881;BME280;63427;49.654;6.596;2023-06-22T00:55:24;99843.90;;;24.26;42.92
74881;BME280;63427;49.654;6.596;2023-06-22T00:57:49;99854.49;;;24.11;44.10
74881;BME280;63427;49.654;6.596;2023-06-22T01:00:15;99868.66;;;23.88;43.39
74881;BME280;63427;49.654;6.596;2023-06-22T01:02:39;99878.16;;;24.16;43.73
74881;BME280;63427;49.654;6.596;2023-06-22T01:05:05;99878.28;;;24.23;42.63
74881;BME280;63427;49.654;6.596;2023-06-22T01:07:34;99875.98;;;24.10;44.26
74881;BME280;63427;49.654;6.596;2023-06-22T01:09:59;99874.03;;;24.07;43.52
74881;BME280;63427;49.654;6.596;2023-06-22T01:12:20;99865.81;;;24.06;43.83
74881;BME280;63427;49.654;6.596;2023-06-22T01:14:50;99845.24;;;24.04;44.32
74881;BME280;63427;49.654;6.596;2023-06-22T01:17:12;99799.59;;;24.00;44.52
74881;BME280;63427;49.654;6.596;2023-06-22T01:19:39;99719.62;;;24.05;44.48
74881;BME280;63427;49.654;6.596;2023-06-22T01:22:01;99691.98;;;24.34;44.61
74881;BME280;63427;49.654;6.596;2023-06-22T01:24:30;99708.97;;;23.86;45.00
74881;BME280;63427;49.654;6.596;2023-06-22T01:27:00;99721.19;;;23.65;45.42
74881;BME280;63427;49.654;6.596;2023-06-22T01:29:17;99729.86;;;23.63;44.18
74881;BME280;63427;49.654;6.596;2023-06-22T01:31:43;99735.47;;;23.89;44.69
74881;BME280;63427;49.654;6.596;2023-06-22T01:34:08;99732.38;;;23.65;45.02
74881;BME280;63427;49.654;6.596;2023-06-22T01:36:33;99736.75;;;24.34;43.17
74881;BME280;63427;49.654;6.596;2023-06-22T01:38:59;99745.48;;;24.05;43.66
74881;BME280;63427;49.654;6.596;2023-06-22T01:41:26;99750.11;;;24.23;44.90
74881;BME280;63427;49.654;6.596;2023-06-22T01:43:49;99746.76;;;23.97;44.43
74881;BME280;63427;49.654;6.596;2023-06-22T01:46:14;99745.57;;;23.72;45.08
74881;BME280;63427;49.654;6.596;2023-06-22T01:48:40;99738.93;;;23.72;45.14
74881;BME280;63427;49.654;6.596;2023-06-22T01:51:06;99735.21;;;23.68;44.65
74881;BME280;63427;49.654;6.596;2023-06-22T01:53:31;99739.40;;;24.08;43.62
74881;BME280;63427;49.654;6.596;2023-06-22T01:55:56;99741.65;;;24.11;43.13
74881;BME280;63427;49.654;6.596;2023-06-22T01:58:24;99741.45;;;23.66;43.67
74881;BME280;63427;49.654;6.596;2023-06-22T02:00:50;99743.59;;;23.61;44.69
74881;BME280;63427;49.654;6.596;2023-06-22T02:03:14;99747.73;;;23.56;45.28
74881;BME280;63427;49.654;6.596;2023-06-22T02:05:39;99745.15;;;23.53;45.29
74881;BME280;63427;49.654;6.596;2023-06-22T02:08:07;99740.24;;;23.74;44.97
74881;BME280;63427;49.654;6.596;2023-06-22T02:10:28;99741.38;;;23.69;45.21
74881;BME280;63427;49.654;6.596;2023-06-22T02:12:54;99732.43;;;23.74;44.81
74881;BME280;63427;49.654;6.596;2023-06-22T02:15:18;99727.63;;;23.76;45.49
74881;BME280;63427;49.654;6.596;2023-06-22T02:17:43;99726.33;;;23.94;45.42
74881;BME280;63427;49.654;6.596;2023-06-22T02:20:12;99724.38;;;23.43;45.64
74881;BME280;63427;49.654;6.596;2023-06-22T02:22:34;99722.11;;;23.62;45.38
74881;BME280;63427;49.654;6.596;2023-06-22T02:25:00;99716.53;;;23.80;45.59
74881;BME280;63427;49.654;6.596;2023-06-22T02:27:25;99712.31;;;23.91;45.30
74881;BME280;63427;49.654;6.596;2023-06-22T02:29:51;99708.00;;;23.35;45.37
74881;BME280;63427;49.654;6.596;2023-06-22T02:32:16;99704.53;;;23.85;46.19
74881;BME280;63427;49.654;6.596;2023-06-22T02:34:41;99700.68;;;23.60;44.37
74881;BME280;63427;49.654;6.596;2023-06-22T02:37:07;99693.25;;;23.48;45.68
74881;BME280;63427;49.654;6.596;2023-06-22T02:39:32;99686.84;;;23.81;45.33
74881;BME280;63427;49.654;6.596;2023-06-22T02:41:58;99681.09;;;23.57;44.19
74881;BME280;63427;49.654;6.596;2023-06-22T02:44:23;99681.49;;;23.45;45.26
74881;BME280;63427;49.654;6.596;2023-06-22T02:46:49;99686.59;;;23.78;44.01
74881;BME280;63427;49.654;6.596;2023-06-22T02:49:14;99692.41;;;23.79;42.88
74881;BME280;63427;49.654;6.596;2023-06-22T02:51:44;99688.87;;;23.65;44.71
74881;BME280;63427;49.654;6.596;2023-06-22T02:54:05;99681.50;;;23.78;44.83
74881;BME280;63427;49.654;6.596;2023-06-22T02:56:30;99681.45;;;23.15;45.78
74881;BME280;63427;49.654;6.596;2023-06-22T02:58:55;99675.42;;;23.68;45.04
74881;BME280;63427;49.654;6.596;2023-06-22T03:01:21;99675.92;;;23.65;45.49
74881;BME280;63427;49.654;6.596;2023-06-22T03:03:46;99670.23;;;23.47;46.96
74881;BME280;63427;49.654;6.596;2023-06-22T03:06:12;99667.29;;;23.49;46.32
74881;BME280;63427;49.654;6.596;2023-06-22T03:08:38;99665.86;;;23.43;46.05
74881;BME280;63427;49.654;6.596;2023-06-22T03:11:03;99658.67;;;23.16;46.18
74881;BME280;63427;49.654;6.596;2023-06-22T03:13:28;99662.40;;;23.40;46.06
74881;BME280;63427;49.654;6.596;2023-06-22T03:15:53;99668.15;;;23.47;45.83
74881;BME280;63427;49.654;6.596;2023-06-22T03:18:19;99672.54;;;23.58;45.58
74881;BME280;63427;49.654;6.596;2023-06-22T03:20:44;99673.94;;;23.65;45.98
74881;BME280;63427;49.654;6.596;2023-06-22T03:23:10;99669.22;;;23.43;45.51
74881;BME280;63427;49.654;6.596;2023-06-22T03:25:35;99661.63;;;23.47;45.92
74881;BME280;63427;49.654;6.596;2023-06-22T03:28:01;99657.41;;;23.54;44.67
74881;BME280;63427;49.654;6.596;2023-06-22T03:30:27;99653.64;;;23.17;46.55
74881;BME280;63427;49.654;6.596;2023-06-22T03:32:52;99645.69;;;23.27;46.13
74881;BME280;63427;49.654;6.596;2023-06-22T03:35:17;99645.37;;;23.24;45.75
74881;BME280;63427;49.654;6.596;2023-06-22T03:37:43;99645.10;;;23.14;47.01
74881;BME280;63427;49.654;6.596;2023-06-22T03:40:09;99650.24;;;23.46;46.89
74881;BME280;63427;49.654;6.596;2023-06-22T03:42:34;99650.72;;;23.23;46.52
74881;BME280;63427;49.654;6.596;2023-06-22T03:44:59;99646.57;;;23.11;46.14
74881;BME280;63427;49.654;6.596;2023-06-22T03:49:50;99650.62;;;23.36;45.52
74881;BME280;63427;49.654;6.596;2023-06-22T03:52:15;99650.28;;;23.42;45.64
74881;BME280;63427;49.654;6.596;2023-06-22T03:54:41;99649.08;;;23.21;45.64
74881;BME280;63427;49.654;6.596;2023-06-22T03:57:06;99650.07;;;23.20;45.63
74881;BME280;63427;49.654;6.596;2023-06-22T03:59:32;99656.21;;;23.23;46.22
74881;BME280;63427;49.654;6.596;2023-06-22T04:01:58;99655.80;;;23.18;46.63
74881;BME280;63427;49.654;6.596;2023-06-22T04:04:24;99651.41;;;23.42;46.50
74881;BME280;63427;49.654;6.596;2023-06-22T04:06:49;99649.94;;;23.40;45.64
74881;BME280;63427;49.654;6.596;2023-06-22T04:09:15;99648.41;;;23.46;46.11
74881;BME280;63427;49.654;6.596;2023-06-22T04:11:40;99648.75;;;23.05;45.95
74881;BME280;63427;49.654;6.596;2023-06-22T04:14:06;99652.25;;;23.55;46.14
74881;BME280;63427;49.654;6.596;2023-06-22T04:16:33;99647.67;;;23.44;45.83
74881;BME280;63427;49.654;6.596;2023-06-22T04:18:57;99648.19;;;23.58;46.28
74881;BME280;63427;49.654;6.596;2023-06-22T04:21:23;99652.21;;;23.67;45.50
74881;BME280;63427;49.654;6.596;2023-06-22T04:23:48;99647.28;;;23.69;45.25
74881;BME280;63427;49.654;6.596;2023-06-22T04:26:13;99641.22;;;23.58;45.10
74881;BME280;63427;49.654;6.596;2023-06-22T04:28:38;99638.40;;;23.61;46.05
74881;BME280;63427;49.654;6.596;2023-06-22T04:31:04;99643.09;;;23.73;46.10
74881;BME280;63427;49.654;6.596;2023-06-22T04:33:31;99638.68;;;23.74;45.85
74881;BME280;63427;49.654;6.596;2023-06-22T04:35:55;99631.86;;;23.78;45.94
74881;BME280;63427;49.654;6.596;2023-06-22T04:38:21;99626.00;;;23.36;45.18
74881;BME280;63427;49.654;6.596;2023-06-22T04:40:47;99629.31;;;23.44;45.92
74881;BME280;63427;49.654;6.596;2023-06-22T04:43:12;99622.83;;;23.71;45.71
74881;BME280;63427;49.654;6.596;2023-06-22T04:45:37;99613.08;;;24.06;45.98
74881;BME280;63427;49.654;6.596;2023-06-22T04:48:02;99614.69;;;23.45;45.95
74881;BME280;63427;49.654;6.596;2023-06-22T04:50:28;99616.05;;;24.03;45.33
74881;BME280;63427;49.654;6.596;2023-06-22T04:52:53;99613.53;;;24.17;45.36
74881;BME280;63427;49.654;6.596;2023-06-22T04:55:20;99610.01;;;23.66;45.47
74881;BME280;63427;49.654;6.596;2023-06-22T04:57:45;99611.70;;;23.78;45.34
74881;BME280;63427;49.654;6.596;2023-06-22T05:00:12;99617.62;;;23.79;45.42
74881;BME280;63427;49.654;6.596;2023-06-22T05:02:36;99615.65;;;23.81;45.22
74881;BME280;63427;49.654;6.596;2023-06-22T05:05:01;99612.29;;;23.82;45.68
74881;BME280;63427;49.654;6.596;2023-06-22T05:07:26;99616.86;;;23.76;45.60
74881;BME280;63427;49.654;6.596;2023-06-22T05:09:52;99622.37;;;23.89;45.27
74881;BME280;63427;49.654;6.596;2023-06-22T05:12:18;99621.40;;;23.87;44.05
74881;BME280;63427;49.654;6.596;2023-06-22T05:14:43;99626.81;;;23.94;44.70
74881;BME280;63427;49.654;6.596;2023-06-22T05:17:09;99633.62;;;24.06;44.35
74881;BME280;63427;49.654;6.596;2023-06-22T05:19:34;99629.35;;;24.23;44.58
74881;BME280;63427;49.654;6.596;2023-06-22T05:22:00;99626.85;;;24.26;45.19
74881;BME280;63427;49.654;6.596;2023-06-22T05:24:26;99636.64;;;24.25;44.71
74881;BME280;63427;49.654;6.596;2023-06-22T05:26:50;99642.31;;;24.31;45.22
74881;BME280;63427;49.654;6.596;2023-06-22T05:29:16;99638.97;;;24.25;44.17
74881;BME280;63427;49.654;6.596;2023-06-22T05:31:42;99629.85;;;24.56;44.00
74881;BME280;63427;49.654;6.596;2023-06-22T05:34:07;99636.06;;;24.65;43.14
74881;BME280;63427;49.654;6.596;2023-06-22T05:36:33;99638.59;;;24.54;44.75
74881;BME280;63427;49.654;6.596;2023-06-22T05:38:58;99635.97;;;24.60;43.81
74881;BME280;63427;49.654;6.596;2023-06-22T05:41:24;99631.23;;;24.72;44.19
74881;BME280;63427;49.654;6.596;2023-06-22T05:43:49;99629.21;;;24.77;44.89
74881;BME280;63427;49.654;6.596;2023-06-22T05:46:15;99632.65;;;24.70;44.53
74881;BME280;63427;49.654;6.596;2023-06-22T05:48:40;99630.43;;;25.04;44.48
74881;BME280;63427;49.654;6.596;2023-06-22T05:51:05;99632.18;;;24.76;44.26
74881;BME280;63427;49.654;6.596;2023-06-22T05:53:30;99639.34;;;24.83;43.12
74881;BME280;63427;49.654;6.596;2023-06-22T05:55:56;99634.64;;;24.84;43.83
74881;BME280;63427;49.654;6.596;2023-06-22T05:58:22;99625.01;;;25.22;43.62
74881;BME280;63427;49.654;6.596;2023-06-22T06:00:47;99617.28;;;25.04;43.84
74881;BME280;63427;49.654;6.596;2023-06-22T06:03:12;99615.41;;;25.19;43.38
74881;BME280;63427;49.654;6.596;2023-06-22T06:05:38;99619.35;;;25.32;43.16
74881;BME280;63427;49.654;6.596;2023-06-22T06:08:04;99619.26;;;25.48;43.24
74881;BME280;63427;49.654;6.596;2023-06-22T06:10:29;99624.27;;;25.62;43.12
74881;BME280;63427;49.654;6.596;2023-06-22T06:12:54;99626.08;;;25.54;43.38
74881;BME280;63427;49.654;6.596;2023-06-22T06:15:19;99622.94;;;25.45;42.86
74881;BME280;63427;49.654;6.596;2023-06-22T06:17:46;99626.74;;;25.81;42.98
74881;BME280;63427;49.654;6.596;2023-06-22T06:20:11;99631.32;;;25.30;43.05
74881;BME280;63427;49.654;6.596;2023-06-22T06:22:36;99630.72;;;25.41;42.75
74881;BME280;63427;49.654;6.596;2023-06-22T06:25:01;99622.89;;;25.81;43.00
74881;BME280;63427;49.654;6.596;2023-06-22T06:27:26;99622.84;;;25.88;42.65
74881;BME280;63427;49.654;6.596;2023-06-22T06:29:52;99622.16;;;25.89;42.16
74881;BME280;63427;49.654;6.596;2023-06-22T06:32:18;99616.17;;;26.07;42.34
74881;BME280;63427;49.654;6.596;2023-06-22T06:34:43;99613.29;;;25.62;42.58
74881;BME280;63427;49.654;6.596;2023-06-22T06:37:09;99613.59;;;25.76;43.01
74881;BME280;63427;49.654;6.596;2023-06-22T06:39:34;99619.59;;;25.89;42.27
74881;BME280;63427;49.654;6.596;2023-06-22T06:42:00;99617.33;;;26.05;40.89
74881;BME280;63427;49.654;6.596;2023-06-22T06:44:25;99617.87;;;26.19;41.67
74881;BME280;63427;49.654;6.596;2023-06-22T06:46:50;99610.97;;;25.97;42.08
74881;BME280;63427;49.654;6.596;2023-06-22T06:49:16;99606.77;;;25.73;42.08
74881;BME280;63427;49.654;6.596;2023-06-22T06:51:41;99607.69;;;26.21;42.46
74881;BME280;63427;49.654;6.596;2023-06-22T06:54:07;99605.67;;;26.67;41.53
74881;BME280;63427;49.654;6.596;2023-06-22T06:56:32;99596.24;;;26.56;41.08
74881;BME280;63427;49.654;6.596;2023-06-22T06:58:57;99590.60;;;26.43;41.12
74881;BME280;63427;49.654;6.596;2023-06-22T07:01:22;99588.18;;;26.73;40.94
74881;BME280;63427;49.654;6.596;2023-06-22T07:03:51;99581.85;;;26.93;41.04
74881;BME280;63427;49.654;6.596;2023-06-22T07:06:13;99573.50;;;27.09;40.18
74881;BME280;63427;49.654;6.596;2023-06-22T07:08:38;99569.90;;;27.07;40.18
74881;BME280;63427;49.654;6.596;2023-06-22T07:11:04;99554.88;;;27.06;40.28
74881;BME280;63427;49.654;6.596;2023-06-22T07:13:29;99547.31;;;27.36;39.99
74881;BME280;63427;49.654;6.596;2023-06-22T07:15:55;99543.54;;;27.41;39.10
74881;BME280;63427;49.654;6.596;2023-06-22T07:18:21;99543.54;;;27.78;39.08
74881;BME280;63427;49.654;6.596;2023-06-22T07:20:57;99534.20;;;27.63;39.04
74881;BME280;63427;49.654;6.596;2023-06-22T07:23:12;99529.28;;;27.62;38.46
74881;BME280;63427;49.654;6.596;2023-06-22T07:25:38;99523.31;;;27.80;38.25
74881;BME280;63427;49.654;6.596;2023-06-22T07:28:05;99525.31;;;28.18;38.07
74881;BME280;63427;49.654;6.596;2023-06-22T07:30:29;99514.16;;;28.25;37.68
74881;BME280;63427;49.654;6.596;2023-06-22T07:32:55;99502.20;;;28.76;37.61
74881;BME280;63427;49.654;6.596;2023-06-22T07:35:20;99487.85;;;28.92;36.83
74881;BME280;63427;49.654;6.596;2023-06-22T07:37:46;99494.04;;;29.07;35.78
74881;BME280;63427;49.654;6.596;2023-06-22T07:40:12;99507.52;;;29.53;35.27
74881;BME280;63427;49.654;6.596;2023-06-22T07:42:37;99521.52;;;29.16;35.80
74881;BME280;63427;49.654;6.596;2023-06-22T07:45:03;99521.72;;;29.42;35.75
74881;BME280;63427;49.654;6.596;2023-06-22T07:47:28;99499.51;;;29.76;35.15
74881;BME280;63427;49.654;6.596;2023-06-22T07:49:54;99471.28;;;30.03;34.78
74881;BME280;63427;49.654;6.596;2023-06-22T07:52:19;99462.30;;;30.27;34.83
74881;BME280;63427;49.654;6.596;2023-06-22T07:54:49;99458.28;;;30.31;33.98
74881;BME280;63427;49.654;6.596;2023-06-22T07:57:10;99457.09;;;30.65;33.99
74881;BME280;63427;49.654;6.596;2023-06-22T07:59:36;99447.01;;;30.18;33.26
74881;BME280;63427;49.654;6.596;2023-06-22T08:02:01;99434.73;;;30.25;32.78
74881;BME280;63427;49.654;6.596;2023-06-22T08:04:28;99420.07;;;30.92;32.39
74881;BME280;63427;49.654;6.596;2023-06-22T08:06:53;99407.78;;;31.17;32.26
74881;BME280;63427;49.654;6.596;2023-06-22T08:09:18;99399.17;;;30.81;33.03
74881;BME280;63427;49.654;6.596;2023-06-22T08:11:43;99398.28;;;30.96;32.66
74881;BME280;63427;49.654;6.596;2023-06-22T08:14:08;99393.91;;;31.53;31.41
74881;BME280;63427;49.654;6.596;2023-06-22T08:16:34;99387.89;;;31.80;31.35
74881;BME280;63427;49.654;6.596;2023-06-22T08:19:00;99373.04;;;32.17;31.01
74881;BME280;63427;49.654;6.596;2023-06-22T08:21:26;99367.17;;;32.27;28.91
74881;BME280;63427;49.654;6.596;2023-06-22T08:23:50;99372.97;;;32.27;29.77
74881;BME280;63427;49.654;6.596;2023-06-22T08:26:16;99380.24;;;32.30;27.69
74881;BME280;63427;49.654;6.596;2023-06-22T08:28:42;99387.72;;;32.08;27.96
74881;BME280;63427;49.654;6.596;2023-06-22T08:31:07;99394.96;;;32.21;27.96
74881;BME280;63427;49.654;6.596;2023-06-22T08:33:33;99395.73;;;31.95;27.90
74881;BME280;63427;49.654;6.596;2023-06-22T08:35:58;99394.80;;;32.58;28.55
74881;BME280;63427;49.654;6.596;2023-06-22T08:38:24;99392.75;;;32.15;28.52
74881;BME280;63427;49.654;6.596;2023-06-22T08:40:49;99392.22;;;32.08;26.88
74881;BME280;63427;49.654;6.596;2023-06-22T08:43:15;99383.94;;;32.29;27.19
74881;BME280;63427;49.654;6.596;2023-06-22T08:45:41;99371.83;;;32.07;27.02
74881;BME280;63427;49.654;6.596;2023-06-22T08:48:06;99357.62;;;31.49;27.47
74881;BME280;63427;49.654;6.596;2023-06-22T08:50:32;99337.14;;;31.66;27.93
74881;BME280;63427;49.654;6.596;2023-06-22T08:52:57;99340.30;;;32.23;27.76
74881;BME280;63427;49.654;6.596;2023-06-22T08:55:23;99381.34;;;32.01;27.14
74881;BME280;63427;49.654;6.596;2023-06-22T08:57:49;99460.00;;;31.69;29.15
74881;BME280;63427;49.654;6.596;2023-06-22T09:00:16;99555.78;;;31.37;30.51
74881;BME280;63427;49.654;6.596;2023-06-22T09:02:40;99618.02;;;30.46;31.83
74881;BME280;63427;49.654;6.596;2023-06-22T09:05:06;99637.83;;;29.51;33.79
74881;BME280;63427;49.654;6.596;2023-06-22T09:07:42;99615.16;;;29.16;35.51
74881;BME280;63427;49.654;6.596;2023-06-22T09:09:57;99546.54;;;28.76;36.82
74881;BME280;63427;49.654;6.596;2023-06-22T09:12:25;99523.03;;;28.98;35.90
74881;BME280;63427;49.654;6.596;2023-06-22T09:14:48;99544.98;;;29.00;36.41
74881;BME280;63427;49.654;6.596;2023-06-22T09:17:14;99545.69;;;29.23;35.96
74881;BME280;63427;49.654;6.596;2023-06-22T09:19:39;99523.10;;;29.45;36.02
74881;BME280;63427;49.654;6.596;2023-06-22T09:22:05;99531.12;;;29.57;36.56
74881;BME280;63427;49.654;6.596;2023-06-22T09:24:30;99537.65;;;29.81;37.53
74881;BME280;63427;49.654;6.596;2023-06-22T09:26:56;99531.47;;;29.54;37.00
74881;BME280;63427;49.654;6.596;2023-06-22T09:29:22;99535.68;;;29.47;37.43
74881;BME280;63427;49.654;6.596;2023-06-22T09:31:47;99543.17;;;29.60;37.24
74881;BME280;63427;49.654;6.596;2023-06-22T09:34:14;99546.33;;;29.37;35.59
74881;BME280;63427;49.654;6.596;2023-06-22T09:36:58;99542.14;;;28.70;36.01
74881;BME280;63427;49.654;6.596;2023-06-22T09:39:04;99537.19;;;29.65;35.77
74881;BME280;63427;49.654;6.596;2023-06-22T09:41:30;99535.98;;;29.95;36.37
74881;BME280;63427;49.654;6.596;2023-06-22T09:43:56;99540.23;;;30.08;36.71
74881;BME280;63427;49.654;6.596;2023-06-22T09:46:21;99542.70;;;29.79;36.15
74881;BME280;63427;49.654;6.596;2023-06-22T09:48:46;99538.91;;;29.26;36.79
74881;BME280;63427;49.654;6.596;2023-06-22T09:51:12;99533.78;;;29.41;36.92
74881;BME280;63427;49.654;6.596;2023-06-22T09:53:37;99524.41;;;29.57;37.60
74881;BME280;63427;49.654;6.596;2023-06-22T09:56:02;99519.82;;;29.90;38.20
74881;BME280;63427;49.654;6.596;2023-06-22T09:58:27;99505.15;;;29.83;36.71
74881;BME280;63427;49.654;6.596;2023-06-22T10:00:53;99491.34;;;29.69;38.09
74881;BME280;63427;49.654;6.596;2023-06-22T10:03:18;99482.81;;;30.08;36.89
74881;BME280;63427;49.654;6.596;2023-06-22T10:05:44;99478.99;;;29.95;37.10
74881;BME280;63427;49.654;6.596;2023-06-22T10:08:09;99474.35;;;30.37;36.49
74881;BME280;63427;49.654;6.596;2023-06-22T10:10:35;99473.38;;;30.73;35.63
74881;BME280;63427;49.654;6.596;2023-06-22T10:13:08;99469.76;;;30.69;36.24
74881;BME280;63427;49.654;6.596;2023-06-22T10:15:26;99466.97;;;30.86;35.93
74881;BME280;63427;49.654;6.596;2023-06-22T10:17:51;99457.48;;;31.20;34.92
74881;BME280;63427;49.654;6.596;2023-06-22T10:20:17;99450.73;;;31.18;34.88
74881;BME280;63427;49.654;6.596;2023-06-22T10:22:44;99452.83;;;31.45;34.56
74881;BME280;63427;49.654;6.596;2023-06-22T10:25:09;99443.69;;;31.80;35.37
74881;BME280;63427;49.654;6.596;2023-06-22T10:27:34;99435.65;;;31.65;33.36
74881;BME280;63427;49.654;6.596;2023-06-22T10:30:00;99435.11;;;31.82;32.75
74881;BME280;63427;49.654;6.596;2023-06-22T10:32:25;99429.12;;;31.88;32.42
74881;BME280;63427;49.654;6.596;2023-06-22T10:34:51;99429.25;;;31.80;32.82
74881;BME280;63427;49.654;6.596;2023-06-22T10:37:16;99429.37;;;31.63;33.14
74881;BME280;63427;49.654;6.596;2023-06-22T10:39:42;99431.67;;;32.17;31.97
74881;BME280;63427;49.654;6.596;2023-06-22T10:42:08;99424.11;;;32.51;32.62
74881;BME280;63427;49.654;6.596;2023-06-22T10:44:33;99415.77;;;33.27;32.78
74881;BME280;63427;49.654;6.596;2023-06-22T10:46:59;99408.11;;;33.60;31.11
74881;BME280;63427;49.654;6.596;2023-06-22T10:49:24;99399.42;;;33.83;29.13
74881;BME280;63427;49.654;6.596;2023-06-22T10:51:50;99398.10;;;33.43;29.39
74881;BME280;63427;49.654;6.596;2023-06-22T10:54:14;99398.27;;;33.18;29.33
74881;BME280;63427;49.654;6.596;2023-06-22T10:56:40;99404.72;;;33.34;29.28
74881;BME280;63427;49.654;6.596;2023-06-22T10:59:06;99399.43;;;33.83;30.40
74881;BME280;63427;49.654;6.596;2023-06-22T11:01:31;99385.30;;;33.99;29.15
74881;BME280;63427;49.654;6.596;2023-06-22T11:03:57;99365.77;;;33.72;29.62
74881;BME280;63427;49.654;6.596;2023-06-22T11:06:23;99366.73;;;33.06;30.14
74881;BME280;63427;49.654;6.596;2023-06-22T11:08:49;99376.87;;;32.92;30.39
74881;BME280;63427;49.654;6.596;2023-06-22T11:11:15;99374.79;;;33.50;29.52
74881;BME280;63427;49.654;6.596;2023-06-22T11:13:39;99372.33;;;33.77;29.64
74881;BME280;63427;49.654;6.596;2023-06-22T11:16:05;99368.12;;;34.61;28.64
74881;BME280;63427;49.654;6.596;2023-06-22T11:18:31;99359.17;;;35.05;28.03
74881;BME280;63427;49.654;6.596;2023-06-22T11:20:56;99352.47;;;35.12;27.29
74881;BME280;63427;49.654;6.596;2023-06-22T11:23:22;99346.37;;;35.10;27.89
74881;BME280;63427;49.654;6.596;2023-06-22T11:25:47;99348.33;;;35.37;26.47
74881;BME280;63427;49.654;6.596;2023-06-22T11:28:18;99347.96;;;35.77;25.51
74881;BME280;63427;49.654;6.596;2023-06-22T11:30:38;99345.59;;;36.40;25.31
74881;BME280;63427;49.654;6.596;2023-06-22T11:33:04;99338.69;;;36.84;25.72
74881;BME280;63427;49.654;6.596;2023-06-22T11:35:29;99330.63;;;36.90;24.18
74881;BME280;63427;49.654;6.596;2023-06-22T11:37:55;99325.22;;;37.30;23.94
74881;BME280;63427;49.654;6.596;2023-06-22T11:40:20;99309.22;;;37.71;23.96
74881;BME280;63427;49.654;6.596;2023-06-22T11:42:46;99302.14;;;38.28;22.81
74881;BME280;63427;49.654;6.596;2023-06-22T11:45:11;99291.21;;;37.92;22.26
74881;BME280;63427;49.654;6.596;2023-06-22T11:47:37;99293.17;;;38.97;21.64
74881;BME280;63427;49.654;6.596;2023-06-22T11:50:02;99285.15;;;39.45;20.92
74881;BME280;63427;49.654;6.596;2023-06-22T11:52:27;99275.84;;;39.71;21.04
74881;BME280;63427;49.654;6.596;2023-06-22T11:54:53;99270.93;;;40.21;20.67
74881;BME280;63427;49.654;6.596;2023-06-22T11:57:23;99267.69;;;40.25;19.86
74881;BME280;63427;49.654;6.596;2023-06-22T11:59:44;99256.60;;;40.31;19.85
74881;BME280;63427;49.654;6.596;2023-06-22T12:02:14;99248.32;;;40.72;19.64
74881;BME280;63427;49.654;6.596;2023-06-22T12:04:34;99253.76;;;41.13;19.31
74881;BME280;63427;49.654;6.596;2023-06-22T12:06:59;99251.83;;;41.70;18.73
74881;BME280;63427;49.654;6.596;2023-06-22T12:09:25;99250.05;;;41.71;18.44
74881;BME280;63427;49.654;6.596;2023-06-22T12:11:50;99248.49;;;42.11;18.17
74881;BME280;63427;49.654;6.596;2023-06-22T12:14:15;99243.71;;;41.98;17.82
74881;BME280;63427;49.654;6.596;2023-06-22T12:16:40;99247.78;;;42.92;17.68
74881;BME280;63427;49.654;6.596;2023-06-22T12:19:06;99247.57;;;43.09;17.68
74881;BME280;63427;49.654;6.596;2023-06-22T12:21:31;99246.77;;;43.69;16.56
74881;BME280;63427;49.654;6.596;2023-06-22T12:23:56;99236.56;;;43.86;16.59
74881;BME280;63427;49.654;6.596;2023-06-22T12:26:26;99226.88;;;43.42;16.50
74881;BME280;63427;49.654;6.596;2023-06-22T12:28:47;99223.01;;;43.74;16.25
74881;BME280;63427;49.654;6.596;2023-06-22T12:31:12;99221.31;;;43.59;16.24
74881;BME280;63427;49.654;6.596;2023-06-22T12:33:37;99213.44;;;43.42;16.62
74881;BME280;63427;49.654;6.596;2023-06-22T12:36:02;99214.49;;;43.01;16.52
74881;BME280;63427;49.654;6.596;2023-06-22T12:38:38;99198.79;;;42.81;16.70
74881;BME280;63427;49.654;6.596;2023-06-22T12:40:53;99206.56;;;42.55;17.31
74881;BME280;63427;49.654;6.596;2023-06-22T12:43:18;99209.41;;;42.66;16.99
74881;BME280;63427;49.654;6.596;2023-06-22T12:45:44;99205.75;;;42.12;17.52
74881;BME280;63427;49.654;6.596;2023-06-22T12:48:09;99198.14;;;42.20;17.47
74881;BME280;63427;49.654;6.596;2023-06-22T12:50:45;99187.38;;;41.83;17.74
74881;BME280;63427;49.654;6.596;2023-06-22T12:52:59;99169.99;;;41.10;17.62